This is the latest recevied weather packets stored in our database for station/object W7JFO-3. If no packets are shown the sender has not sent any weather packets the latest 10 day(s).
| Time | Temp. | Humidity | Pressure | Rain* | Wind** | Luminosity | Snow |
|---|---|---|---|---|---|---|---|
| 1777443419 | 5.56° C | 75% | 1019.2 hPa | 0 mm | - | 0 W/m² | - |
| 1777442519 | 5.56° C | 75% | 1019 hPa | 0 mm | - | 0 W/m² | - |
| 1777441619 | 5.56° C | 74% | 1019 hPa | 0 mm | - | 0 W/m² | - |
| 1777440719 | 5.56° C | 74% | 1019 hPa | 0 mm | - | 0 W/m² | - |
| 1777439819 | 5.56° C | 73% | 1018.9 hPa | 0 mm | - | 0 W/m² | - |
| 1777438919 | 5.56° C | 72% | 1018.9 hPa | 0 mm | - | 0 W/m² | - |
| 1777438019 | 5.56° C | 74% | 1018.8 hPa | 0 mm | - | 0 W/m² | - |
| 1777437119 | 6.11° C | 72% | 1018.7 hPa | 0 mm | - | 0 W/m² | - |
| 1777436219 | 5.56° C | 73% | 1018.5 hPa | 0 mm | - | 0 W/m² | - |
| 1777435319 | 6.11° C | 73% | 1018.5 hPa | 0 mm | - | 0 W/m² | - |
| 1777434419 | 6.11° C | 75% | 1018.3 hPa | 0 mm | - | 0 W/m² | - |
| 1777433519 | 6.11° C | 73% | 1018.2 hPa | 0 mm | - | 0 W/m² | - |
| 1777432619 | 6.11° C | 72% | 1018.1 hPa | 0 mm | - | 0 W/m² | - |
| 1777431719 | 6.11° C | 71% | 1017.9 hPa | 0 mm | - | 0 W/m² | - |
| 1777430819 | 6.11° C | 74% | 1018 hPa | 0 mm | - | 0 W/m² | - |
| 1777429919 | 6.67° C | 71% | 1017.8 hPa | 0 mm | - | 5 W/m² | - |
| 1777429019 | 7.22° C | 68% | 1017.8 hPa | 0 mm | - | 7 W/m² | - |
| 1777428119 | 6.67° C | 72% | 1017.6 hPa | 0 mm | - | 19 W/m² | - |
| 1777427219 | 6.67° C | 77% | 1017.3 hPa | 0 mm | - | 35 W/m² | - |
| 1777426319 | 7.22° C | 68% | 1017.1 hPa | 0 mm | - | 56 W/m² | - |
| 1777425420 | 6.67° C | 71% | 1016.8 hPa | 0 mm | - | 63 W/m² | - |
| 1777424519 | 7.22° C | 69% | 1016.6 hPa | 0 mm | - | 69 W/m² | - |
| 1777423619 | 7.78° C | 67% | 1016.7 hPa | 0 mm | - | 93 W/m² | - |
| 1777422719 | 8.89° C | 66% | 1016.7 hPa | 0 mm | - | 83 W/m² | - |
| 1777421820 | 7.22° C | 80% | 1016.6 hPa | 0 mm | - | 276 W/m² | - |
* Rain latest hour (hover to see other rain measurements)
** Current wind speed in m/s (hover to see current wind gust speed)